Delphos, OH (45833)

1:53 PM EDT on March 23, 2017 (GMT -0400)
Delphos | | Change Station

Elev 764 ft 40.85 °N, 84.35 °W | Updated 9 seconds ago

Mostly Cloudy
Mostly Cloudy
45.2 °F
Feels Like 43 °F
N
5.0
Wind Variable Wind from South

Today
High -- | Low -- °F
--% Chance of Precip.
Yesterday
High -- | Low -- °F
Precip. -- in
Pressure 30.47 in
Visibility 10.0 miles
Clouds Mostly Cloudy 11000 ft
Windchill 43 °F
Dew Point 22 °F
Humidity 40%
Rainfall 0.00 in
Snow Depth Not available.
7:35 AM 7:52 PM
Waning Crescent, 22% visible
METAR KAOH 231653Z AUTO 12009KT 10SM BKN110 06/M07 A3043 RMK AO2 SLP316 T00561067
Pressure 30.47 in
Visibility 10.0 miles
Clouds Mostly Cloudy 11000 ft
Windchill 43 °F
Dew Point 22 °F
Humidity 40%
Rainfall 0.00 in
Snow Depth Not available.
7:35 AM 7:52 PM
Waning Crescent, 22% visible
METAR KAOH 231653Z AUTO 12009KT 10SM BKN110 06/M07 A3043 RMK AO2 SLP316 T00561067

Get Severe Weather Alerts

Thanks for signing up!

Be on the lookout for a verification email in your inbox.

You'll start receiving the daily forecast at 8 AM.

×

10-Day Weather Forecast

Almanac

Astronomy

Mar. 23, 2017 Rise Set
Actual Time
Civil Twilight
Nautical Twilight
Astronomical Twilight
Moon
Length of Visible Light
Length of Day
Tomorrow will be .
, % of the Moon is Illuminated

Today's Extremes

State Highs State Lows

Community

WunderPhotos

Upload Photos

1,962,540 photos uploaded!

WunderBlog® & News

Nearby

Air Quality

  Air Quality AQ Index Pollutant
Not available.

Snow Depth

Station Depth Elevation

Earthquake Activity

City Distance Mag. Time & Date
Minimum magnitude displayed is 2.5.

Earthquake Activity

City Distance Mag. Time & Date
Minimum magnitude displayed is 2.5.

Coastal Water Temperatures

Place Temperature

Stations

Nearby Weather Stations

Station Location Temp. Windchill Dew Point Humidity Wind Precip. Elev Updated Type
                   

Watches & Warnings

There are currently no watches in effect.